createdAt,value
2019-05-02T00:01:01.664Z,40.43
2019-05-02T00:03:35.869Z,41.20
2019-05-02T00:06:03.037Z,41.15
2019-05-02T00:08:34.349Z,39.92
2019-05-02T00:11:03.392Z,40.63
2019-05-02T00:13:32.638Z,40.52
2019-05-02T00:16:01.396Z,39.25
2019-05-02T00:18:31.915Z,39.58
2019-05-02T00:21:01.447Z,38.28
2019-05-02T00:23:31.790Z,38.15
2019-05-02T00:26:00.474Z,37.38
2019-05-02T00:28:29.247Z,37.45
2019-05-02T00:30:57.992Z,35.95
2019-05-02T00:33:29.306Z,34.63
2019-05-02T00:35:57.744Z,36.50
2019-05-02T00:38:26.689Z,34.27
2019-05-02T00:40:57.402Z,33.63
2019-05-02T00:43:29.102Z,34.30
2019-05-02T00:45:59.775Z,33.70
2019-05-02T00:48:54.155Z,35.03
2019-05-02T00:51:21.937Z,36.17
2019-05-02T00:53:51.732Z,38.08
2019-05-02T00:56:21.054Z,36.20
2019-05-02T00:58:49.758Z,36.40
2019-05-02T01:01:32.693Z,37.00
2019-05-02T01:04:05.731Z,37.67
2019-05-02T01:06:34.689Z,36.58
2019-05-02T01:09:05.845Z,37.80
2019-05-02T01:11:35.921Z,35.95
2019-05-02T01:14:05.080Z,36.85
2019-05-02T01:16:33.828Z,37.08
2019-05-02T01:19:03.188Z,36.98
2019-05-02T01:21:38.405Z,36.77
2019-05-02T01:24:03.301Z,37.23
2019-05-02T01:26:36.766Z,36.40
2019-05-02T01:29:11.214Z,37.17
2019-05-02T01:32:05.249Z,34.58
2019-05-02T01:34:48.943Z,35.05
2019-05-02T01:37:22.015Z,35.15
2019-05-02T01:39:50.692Z,35.23
2019-05-02T01:42:19.353Z,35.52
2019-05-02T01:44:48.352Z,34.45
2019-05-02T01:47:17.400Z,33.95
2019-05-02T01:49:46.091Z,34.23
2019-05-02T01:52:18.991Z,32.63
2019-05-02T01:54:45.682Z,33.10
2019-05-02T01:57:15.930Z,33.88
2019-05-02T01:59:44.616Z,34.50
2019-05-02T02:02:13.667Z,36.35
2019-05-02T02:04:45.072Z,35.83
2019-05-02T02:07:15.004Z,36.35
2019-05-02T02:09:45.839Z,36.48
2019-05-02T02:12:14.611Z,37.58
2019-05-02T02:14:43.316Z,38.48
2019-05-02T02:17:15.584Z,38.13
2019-05-02T02:19:48.344Z,39.20
2019-05-02T02:22:33.752Z,39.10
2019-05-02T02:25:21.175Z,38.17
2019-05-02T02:27:49.844Z,38.98
2019-05-02T02:30:24.335Z,38.40
2019-05-02T02:32:49.055Z,39.25
2019-05-02T02:35:17.741Z,39.60
2019-05-02T02:37:52.922Z,38.80
2019-05-02T02:40:16.993Z,41.85
2019-05-02T02:42:45.836Z,41.35
2019-05-02T02:45:31.456Z,40.05
2019-05-02T02:48:02.453Z,39.13
2019-05-02T02:50:30.554Z,40.98
2019-05-02T02:52:59.497Z,38.83
2019-05-02T02:55:28.284Z,42.43
2019-05-02T02:57:58.565Z,40.08
2019-05-02T03:00:27.473Z,40.03
2019-05-02T03:02:56.391Z,38.63
2019-05-02T03:05:27.673Z,38.98
2019-05-02T03:07:59.509Z,39.42
2019-05-02T03:10:26.908Z,39.98
2019-05-02T03:13:21.479Z,38.45
2019-05-02T03:15:50.454Z,38.48
2019-05-02T03:18:19.204Z,38.98
2019-05-02T03:20:48.299Z,36.25
2019-05-02T03:23:21.695Z,39.25
2019-05-02T03:25:51.217Z,37.93
2019-05-02T03:28:20.853Z,38.38
2019-05-02T03:30:49.307Z,38.05
2019-05-02T03:33:18.100Z,38.10
2019-05-02T03:35:49.070Z,40.20
2019-05-02T03:38:17.898Z,39.95
2019-05-02T03:40:46.586Z,40.20
2019-05-02T03:43:18.987Z,39.40
2019-05-02T03:45:45.910Z,40.55
2019-05-02T03:48:18.135Z,45.25
2019-05-02T03:50:45.383Z,45.38
2019-05-02T03:53:17.526Z,44.55
2019-05-02T03:55:44.666Z,44.53
2019-05-02T03:58:16.775Z,44.85
2019-05-02T04:00:47.121Z,43.20
2019-05-02T04:03:16.469Z,44.13
2019-05-02T04:05:45.238Z,41.73
2019-05-02T04:08:20.844Z,43.25
2019-05-02T04:11:09.207Z,44.13
2019-05-02T04:13:38.657Z,44.15
2019-05-02T04:16:14.525Z,41.80
2019-05-02T04:18:38.310Z,42.03
2019-05-02T04:21:07.031Z,42.45
2019-05-02T04:23:38.347Z,40.15
2019-05-02T04:26:12.769Z,42.35
2019-05-02T04:28:37.843Z,41.25
2019-05-02T04:31:06.570Z,42.08
2019-05-02T04:33:36.572Z,44.05
2019-05-02T04:36:13.752Z,43.92
2019-05-02T04:38:46.567Z,43.63
2019-05-02T04:41:09.337Z,47.62
2019-05-02T04:43:40.576Z,43.28
2019-05-02T04:46:18.091Z,44.25
2019-05-02T04:48:48.150Z,42.97
2019-05-02T04:51:16.262Z,44.50
2019-05-02T04:53:45.039Z,41.30
2019-05-02T04:56:11.733Z,40.88
2019-05-02T04:58:40.946Z,41.02
2019-05-02T05:01:10.296Z,41.18
2019-05-02T05:03:39.198Z,40.23
2019-05-02T05:06:12.232Z,41.30
2019-05-02T05:08:41.588Z,41.28
2019-05-02T05:11:09.069Z,44.03
2019-05-02T05:13:37.738Z,43.52
2019-05-02T05:16:08.645Z,44.08
2019-05-02T05:18:37.863Z,42.62
2019-05-02T05:21:10.342Z,40.58
2019-05-02T05:24:08.312Z,43.55
2019-05-02T05:26:42.831Z,46.50
2019-05-02T05:29:09.322Z,45.28
2019-05-02T05:31:38.284Z,45.63
2019-05-02T05:34:08.017Z,44.27
2019-05-02T05:36:37.618Z,44.83
2019-05-02T05:39:28.175Z,44.08
2019-05-02T05:41:57.854Z,40.55
2019-05-02T05:44:28.682Z,41.40
2019-05-02T05:46:58.142Z,42.10
2019-05-02T05:49:28.222Z,40.90
2019-05-02T05:52:02.277Z,41.88
2019-05-02T05:54:28.293Z,41.77
2019-05-02T05:56:57.615Z,41.53
2019-05-02T05:59:28.117Z,44.00
2019-05-02T06:01:57.995Z,43.98
2019-05-02T06:04:32.709Z,42.67
2019-05-02T06:06:59.408Z,44.95
2019-05-02T06:09:31.009Z,44.23
2019-05-02T06:11:58.457Z,42.38
2019-05-02T06:14:27.163Z,42.27
2019-05-02T06:16:56.059Z,43.13
2019-05-02T06:19:25.100Z,42.70
2019-05-02T06:21:53.777Z,42.80
2019-05-02T06:24:22.537Z,43.70
2019-05-02T06:26:51.854Z,44.58
2019-05-02T06:29:20.976Z,43.85
2019-05-02T06:31:49.898Z,44.13
2019-05-02T06:34:18.612Z,44.55
2019-05-02T06:36:47.355Z,42.73
2019-05-02T06:39:18.904Z,42.65
2019-05-02T06:41:51.896Z,43.17
2019-05-02T06:44:23.640Z,42.67
2019-05-02T06:46:49.966Z,41.98
2019-05-02T06:49:24.294Z,43.55
2019-05-02T06:51:51.065Z,42.90
2019-05-02T06:54:22.907Z,44.50
2019-05-02T06:56:50.226Z,42.43
2019-05-02T06:59:20.259Z,40.20
2019-05-02T07:01:52.395Z,39.70
2019-05-02T07:04:22.959Z,43.20
2019-05-02T07:06:58.494Z,42.58
2019-05-02T07:09:22.014Z,42.70
2019-05-02T07:11:57.267Z,46.83
2019-05-02T07:14:23.538Z,41.30
2019-05-02T07:17:16.392Z,42.20
2019-05-02T07:19:49.858Z,41.53
2019-05-02T07:22:18.587Z,45.75
2019-05-02T07:24:47.287Z,42.00
2019-05-02T07:27:16.572Z,43.98
2019-05-02T07:29:45.300Z,45.60
2019-05-02T07:32:14.165Z,62.05
2019-05-02T07:34:44.261Z,39.92
2019-05-02T07:37:14.051Z,42.53
2019-05-02T07:39:43.416Z,39.75
2019-05-02T07:42:12.444Z,50.30
2019-05-02T07:44:41.325Z,39.50
2019-05-02T07:47:10.005Z,37.73
2019-05-02T07:49:39.078Z,37.90
2019-05-02T07:52:08.065Z,38.50
2019-05-02T07:54:37.006Z,37.13
2019-05-02T07:57:05.788Z,40.12
2019-05-02T07:59:34.787Z,40.92
2019-05-02T08:02:03.455Z,40.60
2019-05-02T08:04:32.141Z,38.88
2019-05-02T08:07:00.807Z,38.55
2019-05-02T08:09:32.225Z,39.92
2019-05-02T08:12:00.887Z,38.30
2019-05-02T08:14:34.514Z,39.55
2019-05-02T08:17:05.669Z,39.30
2019-05-02T08:19:30.935Z,38.80
2019-05-02T08:22:04.722Z,40.52
2019-05-02T08:24:32.976Z,39.95
2019-05-02T08:30:28.395Z,39.83
2019-05-02T08:32:57.396Z,41.48
2019-05-02T08:35:28.033Z,41.77
2019-05-02T08:37:56.607Z,41.92
2019-05-02T08:40:25.346Z,43.33
2019-05-02T08:42:54.026Z,41.88
2019-05-02T08:45:22.787Z,41.02
2019-05-02T08:47:51.759Z,41.00
2019-05-02T08:50:20.520Z,42.90
2019-05-02T08:52:49.537Z,42.23
2019-05-02T08:55:18.225Z,42.60
2019-05-02T08:57:46.900Z,43.20
2019-05-02T09:00:16.042Z,43.17
2019-05-02T09:02:44.798Z,42.55
2019-05-02T09:05:13.834Z,43.30
2019-05-02T09:07:43.301Z,42.23
2019-05-02T09:10:12.386Z,43.48
2019-05-02T09:12:45.074Z,42.65
2019-05-02T09:15:12.621Z,42.25
2019-05-02T09:17:46.564Z,43.15
2019-05-02T09:20:16.598Z,43.52
2019-05-02T09:22:46.493Z,41.98
2019-05-02T09:25:33.994Z,43.15
2019-05-02T09:28:02.674Z,42.65
2019-05-02T09:30:32.682Z,42.17
2019-05-02T09:33:05.399Z,39.13
2019-05-02T09:35:32.904Z,42.83
2019-05-02T09:38:01.923Z,41.95
2019-05-02T09:40:31.866Z,42.90
2019-05-02T09:43:02.835Z,43.80
2019-05-02T09:45:37.168Z,38.90
2019-05-02T09:50:34.785Z,39.10
2019-05-02T09:53:03.765Z,41.77
2019-05-02T09:55:32.532Z,41.00
2019-05-02T09:58:02.659Z,39.48
2019-05-02T10:00:41.844Z,38.88
2019-05-02T10:03:12.050Z,39.18
2019-05-02T10:05:43.000Z,41.15
2019-05-02T10:08:13.934Z,41.05
2019-05-02T10:10:45.724Z,41.40
2019-05-02T10:13:13.159Z,40.63
2019-05-02T10:15:42.269Z,41.50
2019-05-02T10:18:14.123Z,42.58
2019-05-02T10:20:42.133Z,43.00
2019-05-02T10:23:19.048Z,43.23
2019-05-02T10:25:46.614Z,42.70
2019-05-02T10:28:13.095Z,44.93
2019-05-02T10:30:42.665Z,44.00
2019-05-02T10:33:12.497Z,45.65
2019-05-02T10:35:43.499Z,42.30
2019-05-02T10:38:15.147Z,43.13
2019-05-02T10:40:42.946Z,43.90
2019-05-02T10:43:11.890Z,42.67
2019-05-02T10:45:42.642Z,43.75
2019-05-02T10:48:25.237Z,43.58
2019-05-02T10:50:47.524Z,42.47
2019-05-02T10:53:16.358Z,45.40
2019-05-02T10:55:45.481Z,41.77
2019-05-02T10:58:14.256Z,41.98
2019-05-02T11:00:45.399Z,41.90
2019-05-02T11:03:22.556Z,39.20
2019-05-02T11:05:58.016Z,39.88
2019-05-02T11:08:27.534Z,37.88
2019-05-02T11:10:56.412Z,37.58
2019-05-02T11:13:43.320Z,38.15
2019-05-02T11:16:37.316Z,38.38
2019-05-02T11:21:59.278Z,39.08
2019-05-02T11:24:28.647Z,38.60
2019-05-02T11:26:57.676Z,40.50
2019-05-02T11:29:26.738Z,40.45
2019-05-02T11:31:55.725Z,39.55
2019-05-02T11:34:25.126Z,39.00
2019-05-02T11:36:54.218Z,39.38
2019-05-02T11:39:31.875Z,37.85
2019-05-02T11:41:53.826Z,38.92
2019-05-02T11:44:22.757Z,38.58
2019-05-02T11:46:52.046Z,37.40
2019-05-02T11:49:22.798Z,39.03
2019-05-02T11:51:56.919Z,38.70
2019-05-02T11:54:22.748Z,37.95
2019-05-02T11:56:53.532Z,37.08
2019-05-02T11:59:28.150Z,37.50
2019-05-02T12:02:09.391Z,35.70
2019-05-02T12:04:38.337Z,34.92
2019-05-02T12:07:07.105Z,35.33
2019-05-02T12:09:35.786Z,35.48
2019-05-02T12:12:04.570Z,37.63
2019-05-02T12:14:36.380Z,37.33
2019-05-02T12:17:03.685Z,38.60
2019-05-02T12:19:32.377Z,38.63
2019-05-02T12:22:02.627Z,38.92
2019-05-02T12:24:31.989Z,38.45
2019-05-02T12:27:02.520Z,40.85
2019-05-02T12:29:31.236Z,40.30
2019-05-02T12:31:59.940Z,39.78
2019-05-02T12:34:28.622Z,40.33
2019-05-02T12:36:57.368Z,40.33
2019-05-02T12:39:26.625Z,40.00
2019-05-02T12:41:55.660Z,40.35
2019-05-02T12:44:25.069Z,39.78
2019-05-02T12:46:53.765Z,40.70
2019-05-02T12:49:27.705Z,40.17
2019-05-02T12:51:53.140Z,39.15
2019-05-02T12:54:22.339Z,39.38
2019-05-02T12:56:52.835Z,41.00
2019-05-02T12:59:22.615Z,41.00
2019-05-02T13:01:53.831Z,40.35
2019-05-02T13:04:23.048Z,42.17
2019-05-02T13:06:53.000Z,39.83
2019-05-02T13:09:23.412Z,38.75
2019-05-02T13:11:58.797Z,38.92
2019-05-02T13:14:31.790Z,40.35
2019-05-02T13:17:03.836Z,39.18
2019-05-02T13:19:40.186Z,42.20
2019-05-02T13:22:15.658Z,41.40
2019-05-02T13:24:52.351Z,42.20
2019-05-02T13:27:18.451Z,41.50
2019-05-02T13:29:48.641Z,44.15
2019-05-02T13:32:53.845Z,41.30
2019-05-02T13:35:42.123Z,43.68
2019-05-02T13:38:13.002Z,41.70
2019-05-02T13:40:44.144Z,41.25
2019-05-02T13:43:13.138Z,41.53
2019-05-02T13:46:22.169Z,42.83
2019-05-02T13:48:52.502Z,41.75
2019-05-02T13:51:22.293Z,41.70
2019-05-02T13:54:02.033Z,41.55
2019-05-02T13:56:49.341Z,43.52
2019-05-02T13:59:19.180Z,43.48
2019-05-02T14:01:52.960Z,43.02
2019-05-02T14:04:23.158Z,42.35
2019-05-02T14:06:52.999Z,40.12
2019-05-02T14:09:57.974Z,38.10
2019-05-02T14:12:42.895Z,36.70
2019-05-02T14:15:13.714Z,36.08
2019-05-02T14:17:42.954Z,34.90
2019-05-02T14:20:13.766Z,35.73
2019-05-02T14:22:42.926Z,36.87
2019-05-02T14:25:12.355Z,35.58
2019-05-02T14:27:42.224Z,35.92
2019-05-02T14:30:12.175Z,36.55
2019-05-02T14:32:42.460Z,36.05
2019-05-02T14:35:45.710Z,34.80
2019-05-02T14:38:15.343Z,35.15
2019-05-02T14:41:17.162Z,35.63
2019-05-02T14:44:12.009Z,34.50
2019-05-02T14:46:42.510Z,35.13
2019-05-02T14:49:12.037Z,34.90
2019-05-02T14:51:41.829Z,35.73
2019-05-02T14:54:12.095Z,34.95
2019-05-02T14:56:49.351Z,34.80
2019-05-02T14:59:20.048Z,36.00
2019-05-02T15:01:52.896Z,38.10
2019-05-02T15:04:22.632Z,37.98
2019-05-02T15:06:52.506Z,38.13
2019-05-02T15:09:26.394Z,37.38
2019-05-02T15:12:02.961Z,38.98
2019-05-02T15:14:33.900Z,54.90
2019-05-02T15:17:02.978Z,39.73
2019-05-02T15:19:32.885Z,40.88
2019-05-02T15:22:02.616Z,39.30
2019-05-02T15:24:34.683Z,38.50
2019-05-02T15:27:03.683Z,38.65
2019-05-02T15:29:32.496Z,36.48
2019-05-02T15:32:12.687Z,39.67
2019-05-02T15:34:58.947Z,38.50
2019-05-02T15:37:28.573Z,41.35
2019-05-02T15:42:27.716Z,43.52
2019-05-02T15:44:56.993Z,45.60
2019-05-02T15:47:27.049Z,45.73
2019-05-02T15:49:55.749Z,49.58
2019-05-02T15:52:28.988Z,49.00
2019-05-02T15:55:00.134Z,46.08
2019-05-02T15:57:28.450Z,50.90
2019-05-02T15:59:57.480Z,50.10
2019-05-02T16:02:28.379Z,45.28
2019-05-02T16:05:02.327Z,44.70
2019-05-02T16:07:27.803Z,43.70
2019-05-02T16:10:01.197Z,42.80
2019-05-02T16:12:31.862Z,43.85
2019-05-02T16:14:57.843Z,41.10
2019-05-02T16:17:28.831Z,40.92
2019-05-02T16:20:07.606Z,39.00
2019-05-02T16:22:33.631Z,38.48
2019-05-02T16:25:02.583Z,40.60
2019-05-02T16:27:45.706Z,42.10
2019-05-02T16:30:17.143Z,44.40
2019-05-02T16:32:52.804Z,44.73
2019-05-02T16:35:23.197Z,42.30
2019-05-02T16:37:55.842Z,45.92
2019-05-02T16:40:29.594Z,47.03
2019-05-02T16:42:53.747Z,49.50
2019-05-02T16:45:23.509Z,48.23
2019-05-02T16:47:58.570Z,56.15
2019-05-02T16:50:27.607Z,54.83
2019-05-02T16:52:53.769Z,56.83
2019-05-02T16:55:26.593Z,57.15
2019-05-02T16:57:56.770Z,57.25
2019-05-02T17:00:25.575Z,57.95
2019-05-02T17:02:54.804Z,52.15
2019-05-02T17:05:23.555Z,51.88
2019-05-02T17:08:18.826Z,47.53
2019-05-02T17:10:53.801Z,47.55
2019-05-02T17:13:21.592Z,49.23
2019-05-02T17:15:52.223Z,50.75
2019-05-02T17:18:22.821Z,53.23
2019-05-02T17:20:53.552Z,54.08
2019-05-02T17:23:22.339Z,55.38
2019-05-02T17:25:52.194Z,56.40
2019-05-02T17:28:22.279Z,56.77
2019-05-02T17:30:52.525Z,52.10
2019-05-02T17:33:21.768Z,53.85
2019-05-02T17:35:53.602Z,53.45
2019-05-02T17:38:25.061Z,53.87
2019-05-02T17:40:54.228Z,56.37
2019-05-02T17:43:22.673Z,54.48
2019-05-02T17:45:51.722Z,55.08
2019-05-02T17:48:20.471Z,53.87
2019-05-02T17:51:13.624Z,53.52
2019-05-02T17:53:49.598Z,55.17
2019-05-02T17:56:20.852Z,57.33
2019-05-02T17:58:53.395Z,55.45
2019-05-02T18:01:21.767Z,56.15
2019-05-02T18:03:52.069Z,58.25
2019-05-02T18:06:32.708Z,57.08
2019-05-02T18:08:55.241Z,58.53
2019-05-02T18:11:24.528Z,58.48
2019-05-02T18:13:53.207Z,57.70
2019-05-02T18:16:22.440Z,57.90
2019-05-02T18:18:52.138Z,55.65
2019-05-02T18:21:25.423Z,55.95
2019-05-02T18:23:52.344Z,54.27
2019-05-02T18:26:22.238Z,54.45
2019-05-02T18:28:52.626Z,55.10
2019-05-02T18:31:21.769Z,58.60
2019-05-02T18:33:52.126Z,57.13
2019-05-02T18:36:23.684Z,58.02
2019-05-02T18:38:52.495Z,54.58
2019-05-02T18:41:22.483Z,54.33
2019-05-02T18:43:52.141Z,51.92
2019-05-02T18:46:22.305Z,55.58
2019-05-02T18:48:51.902Z,56.75
2019-05-02T18:51:21.809Z,56.15
2019-05-02T18:53:52.868Z,57.05
2019-05-02T18:56:22.202Z,59.08
2019-05-02T18:58:53.351Z,59.05
2019-05-02T19:01:21.738Z,58.73
2019-05-02T19:03:52.506Z,60.65
2019-05-02T19:06:22.045Z,61.73
2019-05-02T19:08:52.826Z,63.15
2019-05-02T19:11:26.788Z,62.90
2019-05-02T19:13:54.864Z,66.77
2019-05-02T19:16:24.986Z,61.42
2019-05-02T19:18:57.236Z,66.05
2019-05-02T19:21:26.466Z,62.67
2019-05-02T19:23:55.165Z,60.48
2019-05-02T19:26:26.774Z,61.80
2019-05-02T19:29:08.299Z,55.90
2019-05-02T19:31:46.423Z,57.65
2019-05-02T19:34:16.804Z,57.67
2019-05-02T19:36:46.097Z,58.68
2019-05-02T19:39:14.875Z,57.58
2019-05-02T19:41:45.624Z,57.27
2019-05-02T19:44:15.374Z,58.02
2019-05-02T19:46:44.527Z,54.70
2019-05-02T19:49:16.171Z,59.38
2019-05-02T19:51:43.796Z,55.10
2019-05-02T19:54:12.614Z,56.68
2019-05-02T19:56:46.945Z,54.23
2019-05-02T19:59:16.824Z,54.95
2019-05-02T20:01:44.402Z,51.60
2019-05-02T20:04:16.207Z,52.00
2019-05-02T20:06:45.055Z,47.55
2019-05-02T20:09:13.760Z,46.30
2019-05-02T20:11:42.643Z,46.10
2019-05-02T20:14:12.541Z,52.98
2019-05-02T20:16:48.421Z,49.18
2019-05-02T20:19:22.093Z,42.80
2019-05-02T20:22:07.001Z,43.33
2019-05-02T20:24:57.683Z,43.85
2019-05-02T20:27:23.456Z,43.98
2019-05-02T20:29:52.314Z,41.92
2019-05-02T20:32:22.068Z,41.98
2019-05-02T20:34:51.087Z,39.35
2019-05-02T20:37:21.930Z,38.13
2019-05-02T20:39:50.262Z,39.40
2019-05-02T20:42:19.112Z,38.50
2019-05-02T20:44:47.799Z,38.28
2019-05-02T20:47:23.185Z,38.88
2019-05-02T20:49:51.998Z,39.45
2019-05-02T20:52:21.730Z,38.98
2019-05-02T20:54:52.399Z,39.25
2019-05-02T20:57:21.530Z,37.75
2019-05-02T20:59:52.444Z,37.98
2019-05-02T21:02:21.126Z,36.10
2019-05-02T21:04:52.027Z,37.65
2019-05-02T21:07:37.160Z,36.48
2019-05-02T21:10:27.172Z,38.70
2019-05-02T21:12:55.945Z,37.00
2019-05-02T21:15:24.871Z,36.80
2019-05-02T21:17:53.586Z,42.25
2019-05-02T21:20:22.755Z,38.10
2019-05-02T21:22:52.987Z,32.63
2019-05-02T21:25:23.212Z,33.30
2019-05-02T21:27:52.645Z,32.48
2019-05-02T21:30:26.999Z,32.03
2019-05-02T21:32:55.778Z,29.52
2019-05-02T21:35:24.841Z,29.82
2019-05-02T21:37:53.537Z,30.92
2019-05-02T21:40:23.287Z,30.97
2019-05-02T21:42:52.638Z,33.20
2019-05-02T21:45:22.257Z,27.13
2019-05-02T21:47:52.746Z,29.60
2019-05-02T21:50:32.414Z,14.18
2019-05-02T21:53:22.070Z,14.13
2019-05-02T21:56:13.132Z,12.47
2019-05-02T21:59:02.795Z,13.45
2019-05-02T22:01:34.745Z,12.05
2019-05-02T22:04:04.022Z,10.50
2019-05-02T22:06:32.817Z,11.73
2019-05-02T22:09:03.079Z,10.90
2019-05-02T22:11:32.152Z,10.63
2019-05-02T22:14:02.401Z,10.82
2019-05-02T22:16:32.706Z,9.88
2019-05-02T22:19:02.952Z,9.60
2019-05-02T22:21:32.437Z,9.93
2019-05-02T22:24:10.476Z,9.73
2019-05-02T22:26:32.891Z,10.82
2019-05-02T22:29:02.053Z,9.88
2019-05-02T22:31:32.385Z,10.28
2019-05-02T22:34:02.195Z,9.48
2019-05-02T22:36:32.741Z,9.70
2019-05-02T22:39:34.233Z,9.85
2019-05-02T22:42:04.705Z,9.95
2019-05-02T22:44:33.508Z,8.78
2019-05-02T22:47:02.191Z,8.50
2019-05-02T22:49:31.846Z,7.47
2019-05-02T22:52:00.800Z,7.87
2019-05-02T22:54:31.543Z,7.78
2019-05-02T22:56:59.954Z,6.85
2019-05-02T22:59:31.563Z,6.65
2019-05-02T23:02:01.975Z,5.80
2019-05-02T23:04:32.323Z,5.50
2019-05-02T23:07:03.319Z,6.45
2019-05-02T23:09:32.132Z,6.35
2019-05-02T23:12:02.825Z,6.80
2019-05-02T23:14:32.475Z,6.35
2019-05-02T23:17:02.274Z,6.15
2019-05-02T23:19:31.718Z,6.35
2019-05-02T23:22:02.114Z,6.58
2019-05-02T23:24:46.469Z,5.85
2019-05-02T23:27:37.424Z,5.62
2019-05-02T23:30:08.849Z,6.05
2019-05-02T23:32:38.027Z,7.42
2019-05-02T23:35:07.582Z,6.03
2019-05-02T23:37:36.477Z,5.42
2019-05-02T23:40:05.858Z,5.90
2019-05-02T23:42:34.522Z,5.55
2019-05-02T23:45:03.705Z,6.17
2019-05-02T23:47:33.011Z,5.90
2019-05-02T23:50:02.848Z,5.80
2019-05-02T23:52:31.693Z,5.20
2019-05-02T23:55:00.362Z,5.53
2019-05-02T23:57:29.032Z,6.20
2019-05-02T23:59:57.748Z,6.30
